Time;durP1;ratioP1;P1;durP2;ratioP2;P2;SDS_P1;SDS_P2;PMS_P1;PMS_P2;Temp;Humidity;BMP_temperature;BMP_pressure;BME280_temperature;BME280_humidity;BME280_pressure;Samples;Min_cycle;Max_cycle;Signal;HPM_P1;HPM_P2
2023/03/01 00:01:24;;;;;;;24.83;18.60;;;;;;;;;;4972125;28;20128;-84
2023/03/01 00:03:51;;;;;;;26.60;18.33;;;;;;;;;;4988147;28;20049;-82
2023/03/01 00:06:17;;;;;;;25.08;18.20;;;;;;;;;;4965152;28;20540;-83
2023/03/01 00:08:43;;;;;;;24.45;18.70;;;;;;;;;;4970325;28;20122;-83
2023/03/01 00:11:23;;;;;;;26.95;19.05;;;;;;;;;;4965396;28;20141;-83
2023/03/01 00:13:49;;;;;;;24.75;19.02;;;;;;;;;;4970493;28;20061;-83
2023/03/01 00:16:20;;;;;;;27.38;19.52;;;;;;;;;;4971041;28;20054;-82
2023/03/01 00:18:46;;;;;;;28.27;19.75;;;;;;;;;;4971730;28;20066;-82
2023/03/01 00:21:12;;;;;;;27.25;19.58;;;;;;;;;;4970207;28;20052;-82
2023/03/01 00:23:38;;;;;;;25.58;18.77;;;;;;;;;;4987304;28;20680;-82
2023/03/01 00:26:09;;;;;;;25.30;18.95;;;;;;;;;;4985663;28;20049;-84
2023/03/01 00:28:36;;;;;;;25.48;18.23;;;;;;;;;;4982007;28;20176;-85
2023/03/01 00:31:06;;;;;;;25.98;17.75;;;;;;;;;;4983875;28;20408;-82
2023/03/01 00:33:32;;;;;;;25.85;17.98;;;;;;;;;;4969935;28;20046;-83
2023/03/01 00:35:59;;;;;;;25.63;18.88;;;;;;;;;;4966457;28;20054;-84
2023/03/01 00:38:25;;;;;;;27.15;19.02;;;;;;;;;;4968611;28;20054;-82
2023/03/01 00:40:51;;;;;;;23.13;17.40;;;;;;;;;;4984625;28;20046;-87
2023/03/01 00:43:17;;;;;;;26.73;19.55;;;;;;;;;;4994281;28;20047;-87
2023/03/01 00:45:43;;;;;;;26.17;19.15;;;;;;;;;;5000995;28;20048;-87
2023/03/01 00:48:09;;;;;;;27.40;19.10;;;;;;;;;;4990649;28;20043;-87
2023/03/01 00:50:35;;;;;;;26.67;18.10;;;;;;;;;;4992649;28;20053;-86
2023/03/01 00:53:01;;;;;;;25.33;18.48;;;;;;;;;;4971625;28;20042;-87
2023/03/01 00:55:27;;;;;;;26.98;18.13;;;;;;;;;;4998283;28;20569;-87
2023/03/01 00:57:53;;;;;;;24.52;18.20;;;;;;;;;;4995116;28;20121;-88
2023/03/01 01:00:20;;;;;;;25.25;18.10;;;;;;;;;;4978997;28;20133;-86
2023/03/01 01:02:46;;;;;;;26.42;18.25;;;;;;;;;;4991867;28;20089;-87
2023/03/01 01:05:12;;;;;;;23.40;17.88;;;;;;;;;;4969384;28;20423;-88
2023/03/01 01:07:39;;;;;;;27.10;19.00;;;;;;;;;;5008212;28;20057;-87
2023/03/01 01:10:05;;;;;;;27.55;19.40;;;;;;;;;;4977010;28;20977;-87
2023/03/01 01:12:32;;;;;;;28.83;19.08;;;;;;;;;;4971927;28;20129;-87
2023/03/01 01:14:58;;;;;;;31.17;20.05;;;;;;;;;;4977293;28;20042;-87
2023/03/01 01:17:24;;;;;;;30.75;20.23;;;;;;;;;;4972688;28;21858;-87
2023/03/01 01:19:50;;;;;;;29.38;20.30;;;;;;;;;;4979566;28;20045;-87
2023/03/01 01:22:16;;;;;;;28.20;19.58;;;;;;;;;;4992251;28;20050;-87
2023/03/01 01:24:42;;;;;;;27.55;18.77;;;;;;;;;;4973221;28;20042;-87
2023/03/01 01:27:08;;;;;;;26.15;18.70;;;;;;;;;;4974009;28;20149;-87
2023/03/01 01:29:34;;;;;;;28.63;18.98;;;;;;;;;;4971018;28;20117;-88
2023/03/01 01:32:00;;;;;;;29.00;18.75;;;;;;;;;;4990419;28;20042;-88
2023/03/01 01:34:26;;;;;;;32.20;20.00;;;;;;;;;;4992378;28;20995;-87
2023/03/01 01:36:53;;;;;;;36.80;21.83;;;;;;;;;;4998611;28;20572;-86
2023/03/01 01:39:20;;;;;;;35.40;21.98;;;;;;;;;;4995807;28;20042;-87
2023/03/01 01:41:46;;;;;;;33.58;22.55;;;;;;;;;;4977270;28;20066;-87
2023/03/01 01:44:12;;;;;;;34.90;22.08;;;;;;;;;;4971285;28;20042;-86
2023/03/01 01:46:39;;;;;;;31.40;22.20;;;;;;;;;;4986321;28;20413;-85
2023/03/01 01:49:13;;;;;;;29.08;20.85;;;;;;;;;;4990145;28;20074;-86
2023/03/01 01:51:40;;;;;;;28.80;20.70;;;;;;;;;;4991683;28;20046;-86
2023/03/01 01:54:15;;;;;;;29.90;20.30;;;;;;;;;;4989838;28;20034;-86
2023/03/01 01:56:43;;;;;;;29.27;20.65;;;;;;;;;;4962912;28;20089;-87
2023/03/01 01:59:09;;;;;;;28.55;21.38;;;;;;;;;;4973282;28;20086;-87
2023/03/01 02:01:35;;;;;;;31.67;20.60;;;;;;;;;;4990591;28;20046;-86
2023/03/01 02:04:01;;;;;;;30.05;20.77;;;;;;;;;;4989811;28;20092;-87
2023/03/01 02:06:33;;;;;;;30.15;21.75;;;;;;;;;;4990363;28;20515;-86
2023/03/01 02:09:00;;;;;;;28.85;20.90;;;;;;;;;;4981657;28;20077;-86
2023/03/01 02:11:27;;;;;;;30.30;20.63;;;;;;;;;;4968657;28;20077;-85
2023/03/01 02:13:54;;;;;;;28.30;19.63;;;;;;;;;;4991275;28;20092;-85
2023/03/01 02:16:20;;;;;;;26.83;18.67;;;;;;;;;;4974541;28;20081;-85
2023/03/01 02:18:47;;;;;;;25.65;18.73;;;;;;;;;;4973238;28;20046;-86
2023/03/01 02:21:24;;;;;;;26.13;17.95;;;;;;;;;;4983291;28;20126;-86
2023/03/01 02:23:50;;;;;;;32.08;20.40;;;;;;;;;;4970317;28;20038;-85
2023/03/01 02:26:22;;;;;;;25.67;18.13;;;;;;;;;;4987130;28;20141;-85
2023/03/01 02:28:48;;;;;;;26.15;17.73;;;;;;;;;;4983756;28;20423;-86
2023/03/01 02:34:04;;;;;;;22.17;14.98;;;;;;;;;;4987993;28;20080;-86
2023/03/01 02:36:32;;;;;;;19.17;14.40;;;;;;;;;;4971325;28;20058;-86
2023/03/01 02:38:59;;;;;;;19.05;14.05;;;;;;;;;;4997525;28;20141;-86
2023/03/01 02:41:26;;;;;;;19.05;12.77;;;;;;;;;;4972108;28;20057;-86
2023/03/01 02:43:53;;;;;;;17.23;12.90;;;;;;;;;;4994448;28;20131;-86
2023/03/01 02:46:20;;;;;;;18.45;13.40;;;;;;;;;;4998731;28;20116;-86
2023/03/01 02:48:48;;;;;;;17.73;12.98;;;;;;;;;;4990986;28;20049;-85
2023/03/01 02:51:34;;;;;;;18.48;13.00;;;;;;;;;;4987381;28;20086;-86
2023/03/01 02:54:16;;;;;;;15.50;12.13;;;;;;;;;;4966363;28;20145;-86
2023/03/01 02:56:43;;;;;;;16.33;11.90;;;;;;;;;;4972321;28;20046;-86
2023/03/01 02:59:09;;;;;;;16.08;12.40;;;;;;;;;;4969677;28;20050;-86
2023/03/01 03:01:41;;;;;;;16.73;11.40;;;;;;;;;;4988886;28;20104;-86
2023/03/01 03:04:09;;;;;;;16.00;11.45;;;;;;;;;;4987374;28;20059;-86
2023/03/01 03:06:36;;;;;;;15.02;11.27;;;;;;;;;;4987101;28;20383;-85
2023/03/01 03:09:02;;;;;;;17.42;12.18;;;;;;;;;;4965764;28;20109;-86
2023/03/01 03:11:28;;;;;;;16.70;12.18;;;;;;;;;;4986823;28;20553;-86
2023/03/01 03:13:54;;;;;;;20.17;12.77;;;;;;;;;;4991058;28;20498;-86
2023/03/01 03:16:20;;;;;;;15.70;11.93;;;;;;;;;;4990153;28;20093;-86
2023/03/01 03:18:46;;;;;;;19.30;12.88;;;;;;;;;;4970490;28;20042;-86
2023/03/01 03:21:13;;;;;;;20.35;13.10;;;;;;;;;;4969911;28;20042;-87
2023/03/01 03:23:39;;;;;;;15.90;12.18;;;;;;;;;;4969410;28;20047;-86
2023/03/01 03:26:05;;;;;;;17.67;12.35;;;;;;;;;;4988779;28;20052;-86
2023/03/01 03:28:32;;;;;;;17.63;11.93;;;;;;;;;;4969838;28;20042;-86
2023/03/01 03:31:03;;;;;;;18.40;12.30;;;;;;;;;;4981787;28;20081;-87
2023/03/01 03:33:29;;;;;;;16.05;11.65;;;;;;;;;;4970589;28;20058;-86
2023/03/01 03:35:55;;;;;;;15.98;11.73;;;;;;;;;;4989580;28;20038;-86
2023/03/01 03:38:21;;;;;;;15.98;11.95;;;;;;;;;;4984026;28;20129;-85
2023/03/01 03:41:02;;;;;;;15.48;11.57;;;;;;;;;;4972859;28;20058;-86
2023/03/01 03:43:28;;;;;;;15.50;12.07;;;;;;;;;;4994928;28;20090;-86
2023/03/01 03:45:56;;;;;;;15.63;11.65;;;;;;;;;;4967115;28;20079;-85
2023/03/01 03:48:23;;;;;;;15.90;11.75;;;;;;;;;;5002409;28;20053;-85
2023/03/01 03:50:50;;;;;;;15.77;12.57;;;;;;;;;;4981074;28;20486;-86
2023/03/01 03:53:16;;;;;;;19.98;12.43;;;;;;;;;;4984821;28;20038;-85
2023/03/01 03:55:44;;;;;;;16.70;11.77;;;;;;;;;;4998155;28;20042;-87
2023/03/01 03:58:10;;;;;;;17.27;12.63;;;;;;;;;;4987147;28;20073;-86
2023/03/01 04:00:44;;;;;;;18.73;12.13;;;;;;;;;;4985615;28;20042;-86
2023/03/01 04:03:10;;;;;;;;;;;;;;;;;;4988568;28;20082;-86
2023/03/01 04:05:36;;;;;;;18.55;12.60;;;;;;;;;;4964258;28;19964;-87
2023/03/01 04:08:03;;;;;;;20.33;13.00;;;;;;;;;;4969513;28;20089;-86
2023/03/01 04:10:30;;;;;;;18.55;13.20;;;;;;;;;;4967817;28;20053;-86
2023/03/01 04:12:56;;;;;;;19.45;13.52;;;;;;;;;;4952013;28;1079550;-87
2023/03/01 04:15:23;;;;;;;19.50;13.85;;;;;;;;;;4991560;28;20463;-86
2023/03/01 04:17:51;;;;;;;19.95;14.43;;;;;;;;;;4971241;28;20078;-86
2023/03/01 04:20:24;;;;;;;21.52;14.65;;;;;;;;;;4989163;28;20096;-85
2023/03/01 04:22:50;;;;;;;18.80;14.45;;;;;;;;;;4988806;28;20050;-86
2023/03/01 04:25:16;;;;;;;19.25;14.75;;;;;;;;;;4987845;28;20034;-87
2023/03/01 04:27:42;;;;;;;19.95;15.05;;;;;;;;;;5000776;28;20402;-87
2023/03/01 04:30:08;;;;;;;20.63;15.07;;;;;;;;;;4988993;28;20049;-86
2023/03/01 04:32:34;;;;;;;19.70;14.07;;;;;;;;;;4996752;28;20073;-86
2023/03/01 04:35:01;;;;;;;20.95;14.52;;;;;;;;;;4986224;28;20042;-86
2023/03/01 04:37:27;;;;;;;19.10;13.27;;;;;;;;;;4972004;28;20491;-87
2023/03/01 04:39:53;;;;;;;22.55;14.73;;;;;;;;;;4969863;28;20057;-87
2023/03/01 04:42:19;;;;;;;19.50;13.85;;;;;;;;;;4987061;28;20046;-87
2023/03/01 04:44:45;;;;;;;20.95;13.25;;;;;;;;;;4972649;28;20130;-86
2023/03/01 04:47:12;;;;;;;20.83;12.90;;;;;;;;;;4986730;28;20046;-86
2023/03/01 04:49:38;;;;;;;20.67;13.13;;;;;;;;;;4988509;28;20046;-86
2023/03/01 04:52:05;;;;;;;21.65;14.48;;;;;;;;;;4987323;28;20446;-87
2023/03/01 04:54:32;;;;;;;19.48;13.02;;;;;;;;;;4989574;28;20034;-87
2023/03/01 04:56:58;;;;;;;20.92;13.38;;;;;;;;;;4992342;28;20089;-87
2023/03/01 04:59:24;;;;;;;19.15;13.20;;;;;;;;;;4996556;28;20489;-86
2023/03/01 05:01:51;;;;;;;20.20;13.27;;;;;;;;;;4988691;28;20067;-86
2023/03/01 05:04:17;;;;;;;20.50;13.55;;;;;;;;;;4972054;28;20133;-87
2023/03/01 05:06:44;;;;;;;21.90;13.65;;;;;;;;;;4987663;28;20050;-87
2023/03/01 05:09:11;;;;;;;21.73;14.40;;;;;;;;;;4972872;28;20133;-86
2023/03/01 05:11:37;;;;;;;21.35;13.10;;;;;;;;;;4995505;28;20554;-87
2023/03/01 05:14:04;;;;;;;20.25;12.65;;;;;;;;;;4988307;28;20058;-87
2023/03/01 05:16:30;;;;;;;20.92;12.05;;;;;;;;;;4986370;28;20061;-87
2023/03/01 05:18:57;;;;;;;15.95;10.73;;;;;;;;;;4984385;28;20454;-86
2023/03/01 05:21:23;;;;;;;17.30;11.85;;;;;;;;;;4983373;28;20047;-86
2023/03/01 05:23:49;;;;;;;16.42;11.60;;;;;;;;;;4974445;28;20065;-86
2023/03/01 05:26:17;;;;;;;16.77;11.63;;;;;;;;;;4989247;28;20100;-87
2023/03/01 05:28:43;;;;;;;14.77;11.10;;;;;;;;;;5003707;28;20411;-87
2023/03/01 05:31:10;;;;;;;20.13;15.27;;;;;;;;;;4967442;28;20047;-87
2023/03/01 05:33:40;;;;;;;17.50;12.20;;;;;;;;;;4978078;28;20053;-87
2023/03/01 05:36:07;;;;;;;14.80;10.10;;;;;;;;;;4985244;28;20391;-86
2023/03/01 05:38:33;;;;;;;14.45;10.50;;;;;;;;;;4991932;28;20038;-86
2023/03/01 05:40:59;;;;;;;16.75;10.95;;;;;;;;;;4989130;28;20445;-87
2023/03/01 05:43:25;;;;;;;18.48;11.68;;;;;;;;;;4989116;28;20042;-87
2023/03/01 05:45:51;;;;;;;15.77;11.48;;;;;;;;;;4990677;28;20169;-86
2023/03/01 05:48:19;;;;;;;19.55;13.00;;;;;;;;;;4992012;28;20261;-86
2023/03/01 05:50:47;;;;;;;18.95;12.63;;;;;;;;;;4974954;28;20120;-86
2023/03/01 05:53:15;;;;;;;16.52;12.35;;;;;;;;;;4970472;28;20715;-87
2023/03/01 05:55:42;;;;;;;17.08;11.32;;;;;;;;;;4989283;28;20066;-87
2023/03/01 05:58:10;;;;;;;18.05;12.13;;;;;;;;;;4992309;28;20512;-87
2023/03/01 06:00:36;;;;;;;18.00;11.88;;;;;;;;;;4975110;28;20398;-86
2023/03/01 06:03:02;;;;;;;20.10;12.52;;;;;;;;;;4989509;28;20042;-87
2023/03/01 06:05:29;;;;;;;19.77;12.32;;;;;;;;;;4975537;28;20042;-87
2023/03/01 06:07:55;;;;;;;19.90;13.57;;;;;;;;;;4977014;28;20041;-87
2023/03/01 06:10:22;;;;;;;19.75;13.70;;;;;;;;;;4971494;28;21684;-86
2023/03/01 06:12:48;;;;;;;22.17;14.20;;;;;;;;;;4972122;28;20422;-87
2023/03/01 06:15:15;;;;;;;25.85;14.35;;;;;;;;;;4971850;28;20090;-87
2023/03/01 06:17:42;;;;;;;22.85;13.93;;;;;;;;;;4975471;28;20042;-87
2023/03/01 06:20:10;;;;;;;19.15;13.40;;;;;;;;;;4993395;28;20046;-87
2023/03/01 06:22:37;;;;;;;20.83;13.75;;;;;;;;;;4990327;28;20042;-87
2023/03/01 06:25:03;;;;;;;20.45;13.50;;;;;;;;;;4991302;28;20042;-87
2023/03/01 06:27:29;;;;;;;20.00;12.85;;;;;;;;;;4983865;28;20042;-87
2023/03/01 06:29:55;;;;;;;20.42;13.25;;;;;;;;;;4990530;28;20035;-86
2023/03/01 06:32:21;;;;;;;20.92;13.48;;;;;;;;;;4965029;28;20430;-86
2023/03/01 06:34:47;;;;;;;20.10;13.55;;;;;;;;;;4983748;28;20414;-86
2023/03/01 06:37:13;;;;;;;18.33;12.73;;;;;;;;;;4987818;28;20050;-86
2023/03/01 06:39:39;;;;;;;21.02;14.65;;;;;;;;;;5001951;28;20038;-87
2023/03/01 06:42:05;;;;;;;21.30;13.55;;;;;;;;;;4972111;28;20557;-87
2023/03/01 06:44:31;;;;;;;20.15;13.70;;;;;;;;;;4998009;28;20112;-87
2023/03/01 06:46:57;;;;;;;21.02;13.75;;;;;;;;;;4995972;28;20053;-86
2023/03/01 06:49:23;;;;;;;20.58;13.40;;;;;;;;;;4970701;28;20038;-85
2023/03/01 06:51:49;;;;;;;21.98;13.93;;;;;;;;;;4972811;28;20046;-86
2023/03/01 06:54:17;;;;;;;20.42;13.25;;;;;;;;;;4988055;28;20050;-86
2023/03/01 06:56:43;;;;;;;21.58;14.13;;;;;;;;;;4974912;28;20046;-87
2023/03/01 06:59:09;;;;;;;22.60;14.00;;;;;;;;;;4972067;28;20053;-87
2023/03/01 07:01:35;;;;;;;22.25;14.90;;;;;;;;;;4988944;28;20051;-86
2023/03/01 07:04:01;;;;;;;22.02;14.65;;;;;;;;;;4972710;28;20046;-86
2023/03/01 07:06:27;;;;;;;20.02;14.20;;;;;;;;;;5001748;28;20116;-86
2023/03/01 07:08:53;;;;;;;20.30;13.15;;;;;;;;;;4989511;28;20434;-86
2023/03/01 07:11:19;;;;;;;19.17;13.18;;;;;;;;;;4983448;28;20046;-86
2023/03/01 07:13:45;;;;;;;21.85;14.45;;;;;;;;;;4971306;28;20410;-87
2023/03/01 07:16:11;;;;;;;19.90;14.38;;;;;;;;;;4987495;28;20521;-86
2023/03/01 07:18:37;;;;;;;20.60;14.07;;;;;;;;;;4971743;28;20046;-86
2023/03/01 07:21:11;;;;;;;29.17;14.35;;;;;;;;;;4988712;28;20045;-86
2023/03/01 07:23:37;;;;;;;35.03;16.45;;;;;;;;;;4984653;28;20065;-86
2023/03/01 07:26:04;;;;;;;19.33;13.35;;;;;;;;;;4985040;28;20039;-86
2023/03/01 07:28:30;;;;;;;16.25;12.27;;;;;;;;;;4988517;28;20046;-87
2023/03/01 07:31:01;;;;;;;16.90;12.45;;;;;;;;;;4971184;28;20042;-86
2023/03/01 07:33:27;;;;;;;15.88;12.32;;;;;;;;;;4971465;28;20054;-86
2023/03/01 07:35:57;;;;;;;16.02;12.05;;;;;;;;;;4966825;28;20058;-84
2023/03/01 07:38:23;;;;;;;15.90;11.85;;;;;;;;;;4970563;28;20050;-85
2023/03/01 07:40:49;;;;;;;15.85;11.68;;;;;;;;;;4991590;28;20046;-86
2023/03/01 07:43:15;;;;;;;17.63;11.10;;;;;;;;;;4988572;28;20042;-86
2023/03/01 07:45:41;;;;;;;19.02;10.80;;;;;;;;;;4997968;28;20042;-86
2023/03/01 07:48:07;;;;;;;14.18;10.43;;;;;;;;;;4992524;28;20097;-83
2023/03/01 07:50:33;;;;;;;16.02;10.60;;;;;;;;;;4997671;28;20046;-86
2023/03/01 07:53:00;;;;;;;14.82;9.52;;;;;;;;;;4977301;28;20042;-85
2023/03/01 07:55:26;;;;;;;14.25;10.07;;;;;;;;;;5012568;28;20069;-85
2023/03/01 07:57:52;;;;;;;16.30;11.95;;;;;;;;;;5005261;28;20050;-86
2023/03/01 08:00:18;;;;;;;14.13;11.07;;;;;;;;;;4976341;28;20449;-86
2023/03/01 08:02:45;;;;;;;38.60;14.57;;;;;;;;;;4994978;28;20045;-86
2023/03/01 08:05:11;;;;;;;32.50;13.27;;;;;;;;;;4976657;28;20533;-86
2023/03/01 08:07:37;;;;;;;16.90;10.80;;;;;;;;;;5007691;28;20069;-86
2023/03/01 08:10:03;;;;;;;14.70;9.52;;;;;;;;;;5006614;28;20046;-85
2023/03/01 08:12:29;;;;;;;12.82;9.40;;;;;;;;;;5003652;28;20054;-85
2023/03/01 08:14:56;;;;;;;13.35;9.00;;;;;;;;;;4981630;28;20133;-85
2023/03/01 08:17:22;;;;;;;14.07;9.43;;;;;;;;;;4994573;28;20046;-85
2023/03/01 08:19:48;;;;;;;13.55;9.13;;;;;;;;;;4974880;28;20035;-87
2023/03/01 08:22:14;;;;;;;14.13;9.65;;;;;;;;;;4990172;28;20042;-86
2023/03/01 08:24:40;;;;;;;13.35;9.45;;;;;;;;;;4985764;28;20347;-85
2023/03/01 08:27:06;;;;;;;12.13;9.13;;;;;;;;;;4994248;28;20046;-86
2023/03/01 08:29:33;;;;;;;15.00;11.43;;;;;;;;;;5003484;28;20564;-87
2023/03/01 08:31:59;;;;;;;16.05;11.52;;;;;;;;;;4971701;28;20132;-88
2023/03/01 08:34:26;;;;;;;16.52;11.82;;;;;;;;;;4977434;28;20093;-86
2023/03/01 08:36:52;;;;;;;16.30;11.80;;;;;;;;;;4977191;28;20085;-86
2023/03/01 08:39:19;;;;;;;16.15;11.90;;;;;;;;;;4979169;28;20382;-84
2023/03/01 08:41:46;;;;;;;15.40;11.63;;;;;;;;;;4970610;28;20043;-85
2023/03/01 08:44:12;;;;;;;18.13;12.25;;;;;;;;;;4976172;28;20053;-86
2023/03/01 08:46:40;;;;;;;15.43;11.48;;;;;;;;;;4979748;28;20112;-85
2023/03/01 08:49:11;;;;;;;15.88;11.35;;;;;;;;;;4991317;28;20140;-84
2023/03/01 08:51:37;;;;;;;16.52;11.82;;;;;;;;;;4970925;28;20524;-87
2023/03/01 08:54:04;;;;;;;17.05;11.57;;;;;;;;;;4973119;28;20206;-86
2023/03/01 08:56:30;;;;;;;18.75;12.15;;;;;;;;;;4990946;28;20406;-86
2023/03/01 08:58:57;;;;;;;18.30;12.50;;;;;;;;;;4989883;28;20121;-86
2023/03/01 09:01:23;;;;;;;18.55;11.95;;;;;;;;;;4986788;28;20047;-86
2023/03/01 09:03:49;;;;;;;19.15;13.27;;;;;;;;;;4993378;28;20042;-86
2023/03/01 09:06:15;;;;;;;17.70;12.70;;;;;;;;;;4973726;28;20133;-86
2023/03/01 09:08:43;;;;;;;18.23;13.00;;;;;;;;;;4972892;28;20475;-86
2023/03/01 09:11:10;;;;;;;19.10;13.65;;;;;;;;;;4996747;28;20048;-87
2023/03/01 09:13:36;;;;;;;18.70;13.43;;;;;;;;;;4974583;28;20042;-83
2023/03/01 09:16:04;;;;;;;19.63;13.10;;;;;;;;;;4971609;28;20050;-86
2023/03/01 09:18:30;;;;;;;18.08;12.80;;;;;;;;;;4987937;28;20042;-85
2023/03/01 09:21:07;;;;;;;16.95;12.90;;;;;;;;;;4992084;28;20042;-86
2023/03/01 09:23:38;;;;;;;20.05;13.55;;;;;;;;;;4976387;28;20070;-86
2023/03/01 09:26:05;;;;;;;17.05;13.30;;;;;;;;;;4990393;28;20375;-86
2023/03/01 09:28:31;;;;;;;18.20;12.73;;;;;;;;;;4973977;28;20042;-85
2023/03/01 09:31:00;;;;;;;19.83;13.45;;;;;;;;;;4973503;28;20521;-86
2023/03/01 09:33:27;;;;;;;17.55;12.93;;;;;;;;;;4991522;28;20100;-85
2023/03/01 09:35:57;;;;;;;23.48;14.77;;;;;;;;;;4974349;28;20074;-84
2023/03/01 09:38:23;;;;;;;20.27;14.68;;;;;;;;;;4994406;28;20038;-85
2023/03/01 09:40:49;;;;;;;22.05;16.05;;;;;;;;;;4978485;28;20371;-85
2023/03/01 09:43:21;;;;;;;28.85;17.05;;;;;;;;;;4986135;28;20505;-85
2023/03/01 09:45:49;;;;;;;27.30;17.55;;;;;;;;;;4994411;28;20043;-84
2023/03/01 09:48:22;;;;;;;28.40;18.33;;;;;;;;;;4989343;28;20042;-84
2023/03/01 09:50:48;;;;;;;24.40;16.95;;;;;;;;;;4973649;28;20057;-83
2023/03/01 09:53:19;;;;;;;25.88;17.02;;;;;;;;;;4983307;28;20055;-84
2023/03/01 09:55:45;;;;;;;28.30;17.95;;;;;;;;;;4990296;28;20038;-78
2023/03/01 09:58:30;;;;;;;25.83;18.50;;;;;;;;;;4962922;28;20058;-85
2023/03/01 10:00:59;;;;;;;27.23;20.45;;;;;;;;;;4976841;28;20061;-85
2023/03/01 10:03:43;;;;;;;31.08;21.48;;;;;;;;;;4985664;28;20046;-85
2023/03/01 10:06:18;;;;;;;27.65;19.92;;;;;;;;;;4968781;28;20516;-81
2023/03/01 10:08:53;;;;;;;26.92;19.45;;;;;;;;;;4973113;28;20050;-82
2023/03/01 10:11:31;;;;;;;26.60;20.48;;;;;;;;;;4968205;28;20050;-82
2023/03/01 10:14:16;;;;;;;29.40;21.23;;;;;;;;;;4966203;28;20065;-83
2023/03/01 10:16:48;;;;;;;27.52;21.02;;;;;;;;;;4967026;28;20471;-85
2023/03/01 10:19:20;;;;;;;26.92;19.92;;;;;;;;;;4973214;28;20054;-84
2023/03/01 10:21:47;;;;;;;25.38;19.77;;;;;;;;;;4964249;28;20058;-85
2023/03/01 10:24:14;;;;;;;22.35;16.17;;;;;;;;;;4973499;28;20043;-85
2023/03/01 10:26:46;;;;;;;22.38;16.67;;;;;;;;;;4974371;28;20121;-85
2023/03/01 10:29:13;;;;;;;20.00;16.38;;;;;;;;;;4971278;28;20046;-85
2023/03/01 10:31:39;;;;;;;24.70;18.02;;;;;;;;;;4967124;28;20058;-84
2023/03/01 10:34:10;;;;;;;24.58;18.10;;;;;;;;;;5001416;28;20047;-85
2023/03/01 10:36:37;;;;;;;21.45;16.42;;;;;;;;;;4962234;28;20078;-82
2023/03/01 10:39:11;;;;;;;23.95;16.40;;;;;;;;;;4968047;28;20073;-85
2023/03/01 10:41:45;;;;;;;20.80;16.05;;;;;;;;;;4965381;28;20042;-84
2023/03/01 10:44:31;;;;;;;22.05;15.40;;;;;;;;;;4974208;28;20077;-83
2023/03/01 10:47:00;;;;;;;20.50;15.43;;;;;;;;;;4965844;28;20093;-84
2023/03/01 10:49:27;;;;;;;22.52;17.05;;;;;;;;;;4969429;28;20100;-83
2023/03/01 10:51:53;;;;;;;22.17;16.00;;;;;;;;;;4970875;28;20045;-82
2023/03/01 10:54:26;;;;;;;21.75;15.68;;;;;;;;;;4970157;28;20050;-81
2023/03/01 10:56:53;;;;;;;21.67;16.48;;;;;;;;;;4972956;28;20046;-76
2023/03/01 10:59:26;;;;;;;21.60;16.40;;;;;;;;;;4969897;28;20538;-77
2023/03/01 11:02:04;;;;;;;20.20;15.50;;;;;;;;;;4966546;28;20047;-81
2023/03/01 11:04:30;;;;;;;21.15;15.57;;;;;;;;;;4969897;28;20070;-82
2023/03/01 11:07:00;;;;;;;23.08;16.55;;;;;;;;;;4970635;28;20125;-79
2023/03/01 11:09:27;;;;;;;20.83;15.75;;;;;;;;;;4969128;28;20047;-75
2023/03/01 11:11:54;;;;;;;19.90;15.32;;;;;;;;;;4964624;28;20507;-83
2023/03/01 11:14:40;;;;;;;18.90;15.93;;;;;;;;;;4973792;28;20508;-84
2023/03/01 11:17:14;;;;;;;17.27;13.93;;;;;;;;;;4990732;28;20054;-85
2023/03/01 11:19:40;;;;;;;16.13;12.73;;;;;;;;;;4971709;28;20053;-84
2023/03/01 11:22:11;;;;;;;16.98;13.07;;;;;;;;;;4973061;28;20046;-84
2023/03/01 11:24:37;;;;;;;16.48;13.18;;;;;;;;;;4969330;28;20519;-81
2023/03/01 11:27:05;;;;;;;15.93;12.85;;;;;;;;;;4967324;28;20414;-81
2023/03/01 11:29:39;;;;;;;15.43;12.05;;;;;;;;;;4990738;28;20049;-85
2023/03/01 11:32:07;;;;;;;16.00;12.98;;;;;;;;;;4972780;28;20030;-84
2023/03/01 11:34:46;;;;;;;16.60;12.68;;;;;;;;;;4970028;28;20038;-83
2023/03/01 11:37:17;;;;;;;16.35;13.02;;;;;;;;;;4980497;28;20053;-83
2023/03/01 11:39:46;;;;;;;14.88;12.35;;;;;;;;;;4980234;28;20093;-84
2023/03/01 11:42:15;;;;;;;15.57;12.27;;;;;;;;;;4970084;28;20050;-84
2023/03/01 11:44:42;;;;;;;13.02;11.05;;;;;;;;;;4968101;28;20129;-83
2023/03/01 11:47:18;;;;;;;14.45;11.68;;;;;;;;;;4984027;28;20078;-84
2023/03/01 11:49:55;;;;;;;13.57;11.35;;;;;;;;;;4970643;28;20043;-84
2023/03/01 11:52:21;;;;;;;14.13;11.43;;;;;;;;;;4985421;28;20085;-84
2023/03/01 11:54:55;;;;;;;14.95;11.73;;;;;;;;;;4988379;28;20367;-84
2023/03/01 11:57:40;;;;;;;12.55;11.20;;;;;;;;;;4971624;28;20048;-83
2023/03/01 12:00:12;;;;;;;15.10;12.23;;;;;;;;;;4966687;28;20042;-83
2023/03/01 12:02:56;;;;;;;17.58;12.52;;;;;;;;;;4980437;28;20046;-82
2023/03/01 12:05:41;;;;;;;16.17;12.77;;;;;;;;;;4964638;28;20129;-83
2023/03/01 12:08:25;;;;;;;15.13;12.18;;;;;;;;;;4974112;28;20100;-81
2023/03/01 12:10:51;;;;;;;;;;;;;;;;;;4984577;28;20081;-79
2023/03/01 12:13:35;;;;;;;20.02;12.52;;;;;;;;;;4974143;28;19980;-78
2023/03/01 12:16:02;;;;;;;13.30;11.82;;;;;;;;;;4982970;28;20057;-79
2023/03/01 12:18:35;;;;;;;15.45;12.32;;;;;;;;;;4981031;28;20046;-85
2023/03/01 12:21:09;;;;;;;16.25;12.73;;;;;;;;;;4971817;28;20054;-85
2023/03/01 12:23:45;;;;;;;16.88;12.88;;;;;;;;;;4962927;28;20043;-85
2023/03/01 12:26:13;;;;;;;15.55;12.73;;;;;;;;;;4986953;28;20076;-85
2023/03/01 12:28:58;;;;;;;14.30;12.10;;;;;;;;;;4965675;28;20150;-85
2023/03/01 12:31:33;;;;;;;15.98;12.73;;;;;;;;;;4966183;28;20055;-85
2023/03/01 12:34:18;;;;;;;14.90;12.48;;;;;;;;;;4968836;28;20042;-84
2023/03/01 12:36:48;;;;;;;15.55;11.68;;;;;;;;;;4972016;28;20046;-84
2023/03/01 12:39:33;;;;;;;17.23;13.88;;;;;;;;;;4972621;28;20042;-85
2023/03/01 12:42:18;;;;;;;18.48;13.45;;;;;;;;;;4991172;28;20057;-84
2023/03/01 12:44:53;;;;;;;16.25;12.77;;;;;;;;;;4964172;28;20129;-84
2023/03/01 12:47:25;;;;;;;15.10;12.90;;;;;;;;;;5001736;28;20113;-85
2023/03/01 12:49:55;;;;;;;16.38;12.73;;;;;;;;;;4970466;28;20046;-83
2023/03/01 12:52:33;;;;;;;17.63;14.32;;;;;;;;;;4994304;28;20042;-85
2023/03/01 12:55:01;;;;;;;17.13;13.98;;;;;;;;;;4967231;28;20074;-84
2023/03/01 12:57:36;;;;;;;21.00;14.65;;;;;;;;;;4976631;28;20073;-85
2023/03/01 13:00:18;;;;;;;22.85;14.88;;;;;;;;;;5007114;28;20050;-86
2023/03/01 13:02:49;;;;;;;16.20;13.93;;;;;;;;;;4974924;28;20074;-85
2023/03/01 13:05:31;;;;;;;19.48;14.93;;;;;;;;;;4916451;28;20196;-85
2023/03/01 13:08:02;;;;;;;16.92;14.35;;;;;;;;;;4918568;28;20042;-85
2023/03/01 13:10:34;;;;;;;17.27;13.90;;;;;;;;;;4960563;28;20046;-85
2023/03/01 13:13:12;;;;;;;17.23;14.30;;;;;;;;;;4971560;28;20054;-85
2023/03/01 13:15:39;;;;;;;15.10;13.50;;;;;;;;;;4987587;28;20058;-85
2023/03/01 13:18:25;;;;;;;17.02;13.55;;;;;;;;;;4972549;28;20050;-85
2023/03/01 13:20:52;;;;;;;17.58;14.52;;;;;;;;;;4988118;28;20049;-85
2023/03/01 13:23:21;;;;;;;21.95;14.38;;;;;;;;;;4973874;28;20054;-82
2023/03/01 13:25:59;;;;;;;16.60;14.68;;;;;;;;;;4982340;28;20042;-82
2023/03/01 13:28:34;;;;;;;16.13;13.32;;;;;;;;;;5004354;28;20072;-83
2023/03/01 13:31:01;;;;;;;16.10;13.65;;;;;;;;;;4992273;28;20053;-82
2023/03/01 13:33:27;;;;;;;16.08;12.98;;;;;;;;;;4991488;28;20139;-82
2023/03/01 13:35:53;;;;;;;16.27;12.75;;;;;;;;;;4993066;28;20082;-82
2023/03/01 13:38:45;;;;;;;13.98;12.45;;;;;;;;;;4990842;28;20038;-83
2023/03/01 13:41:12;;;;;;;16.85;12.95;;;;;;;;;;4930743;28;20138;-83
2023/03/01 13:43:41;;;;;;;13.50;11.63;;;;;;;;;;4991262;28;20042;-83
2023/03/01 13:46:24;;;;;;;14.38;11.65;;;;;;;;;;4973726;28;20125;-82
2023/03/01 13:48:51;;;;;;;14.18;12.48;;;;;;;;;;4965898;28;20053;-82
2023/03/01 13:51:20;;;;;;;13.30;11.45;;;;;;;;;;4991052;28;20050;-83
2023/03/01 13:53:47;;;;;;;13.38;11.90;;;;;;;;;;4983683;28;20120;-83
2023/03/01 13:56:27;;;;;;;14.98;13.45;;;;;;;;;;4972382;28;20065;-84
2023/03/01 13:58:55;;;;;;;13.43;12.10;;;;;;;;;;4975318;28;20043;-83
2023/03/01 14:01:23;;;;;;;16.10;12.98;;;;;;;;;;4989152;28;20046;-84
2023/03/01 14:03:49;;;;;;;15.88;12.93;;;;;;;;;;4974202;28;20505;-84
2023/03/01 14:06:20;;;;;;;14.10;12.65;;;;;;;;;;4968701;28;20439;-84
2023/03/01 14:08:47;;;;;;;16.08;13.02;;;;;;;;;;4973668;28;20058;-84
2023/03/01 14:11:22;;;;;;;14.55;13.05;;;;;;;;;;4991578;28;20177;-84
2023/03/01 14:14:07;;;;;;;13.93;12.57;;;;;;;;;;4991139;28;20050;-84
2023/03/01 14:16:39;;;;;;;13.73;12.10;;;;;;;;;;5003931;28;20542;-84
2023/03/01 14:19:11;;;;;;;13.38;11.98;;;;;;;;;;4973607;28;20046;-84
2023/03/01 14:21:37;;;;;;;13.60;11.97;;;;;;;;;;4991251;28;20050;-84
2023/03/01 14:24:03;;;;;;;13.10;11.80;;;;;;;;;;4986857;28;20046;-83
2023/03/01 14:26:30;;;;;;;13.75;12.40;;;;;;;;;;4973507;28;20498;-82
2023/03/01 14:28:56;;;;;;;13.48;11.88;;;;;;;;;;4989469;28;20035;-83
2023/03/01 14:31:28;;;;;;;13.93;12.52;;;;;;;;;;4987890;28;20058;-85